Great Falls International Airport Great Falls US
ICAO: KGTF
IATA: GTF
Category: Medium
Scheduled Services: Yes

Elevation: 3680 ft
TransAlt. 18000 ft.

Airport Communications:
APP/DEP:128.6
ATIS:126.6
GND/CLNC DEL:121.7
ANG OPS MAINT:28.89
RDO:122.6
TWR:118.7
UNICOM:122.95

KGTF Zoom In..

If Map Doesn't Load, Click Here

Runways:

(A) RW 03 length 10502 ft width 150 ft
ILS 111.30 / hdg 29

(B) RW 07 length 4294 ft width 75 ft
---- / hdg 74

(C) RW 16 length 5722 ft width 150 ft
---- / hdg 164

(D) RW 21 length 10502 ft width 150 ft
---- / hdg 209

(E) RW 25 length 4294 ft width 75 ft
---- / hdg 254

(F) RW 34 length 5722 ft width 150 ft
---- / hdg 344

Location; KGTF
Day. 24 / Time. 05.53 Zulu
* Altimeter: 29.95
* Temperature: 08° c. 46.4°f.
* Wind from: 200° Speed 05 kn.
Dewpoint: 03° c.
Visibility: 10 Statute Miles.
Clouds: Overcast 9000 ft.

KGTF 240553Z 20005KT 10SM OVC090 08/03 A2995 RMK AO2 SLP144 T00830033 10178 20061 51007


Wind From 200°
Speed 05 kn.

 
 
jpsmedia.com for Web Design worldairports.se 2018   terms of use